Time;durP1;ratioP1;P1;durP2;ratioP2;P2;SDS_P1;SDS_P2;PMS_P1;PMS_P2;Temp;Humidity;BMP_temperature;BMP_pressure;BME280_temperature;BME280_humidity;BME280_pressure;Samples;Min_cycle;Max_cycle;Signal;HPM_P1;HPM_P2
2022/10/17 00:01:31;;;;;;;8.50;2.60;;;15.20;99.90;;;;;;5012942;28;20033;-71
2022/10/17 00:03:56;;;;;;;3.63;1.67;;;15.30;99.90;;;;;;5012501;28;20034;-71
2022/10/17 00:06:22;;;;;;;3.13;1.75;;;15.40;99.90;;;;;;5012868;28;20080;-72
2022/10/17 00:08:48;;;;;;;4.28;1.75;;;15.40;99.90;;;;;;5012653;28;20582;-72
2022/10/17 00:11:19;;;;;;;11.85;2.22;;;15.40;99.90;;;;;;5012647;28;20033;-72
2022/10/17 00:13:47;;;;;;;4.55;2.10;;;15.40;99.90;;;;;;4995042;28;20536;-71
2022/10/17 00:16:14;;;;;;;2.63;1.73;;;15.30;99.90;;;;;;5012651;28;20042;-72
2022/10/17 00:18:40;;;;;;;13.23;2.63;;;15.30;99.90;;;;;;4995002;28;20378;-73
2022/10/17 00:21:16;;;;;;;3.85;1.60;;;15.30;99.90;;;;;;4995043;28;20091;-72
2022/10/17 00:23:42;;;;;;;5.10;2.28;;;15.30;99.90;;;;;;4995782;28;20033;-72
2022/10/17 00:26:09;;;;;;;5.40;2.80;;;15.30;99.90;;;;;;5011251;28;20030;-72
2022/10/17 00:28:35;;;;;;;6.10;2.00;;;15.30;99.90;;;;;;4995001;28;20099;-72
2022/10/17 00:31:04;;;;;;;4.45;2.00;;;15.20;99.90;;;;;;4978307;28;20030;-72
2022/10/17 00:33:32;;;;;;;5.40;1.92;;;15.20;99.90;;;;;;5011888;28;20413;-71
2022/10/17 00:36:26;;;;;;;6.80;1.40;;;15.20;99.90;;;;;;5012341;28;20037;-72
2022/10/17 00:38:58;;;;;;;5.55;2.63;;;15.30;99.90;;;;;;4994569;28;20428;-72
2022/10/17 00:41:29;;;;;;;3.70;1.88;;;15.30;99.90;;;;;;4994829;28;20108;-72
2022/10/17 00:44:04;;;;;;;14.85;2.63;;;15.30;99.90;;;;;;4994730;28;20111;-71
2022/10/17 00:46:36;;;;;;;8.32;2.47;;;15.20;99.90;;;;;;5011994;28;20129;-72
2022/10/17 00:49:09;;;;;;;5.15;1.98;;;15.20;99.90;;;;;;4994571;28;20034;-72
2022/10/17 00:51:58;;;;;;;3.95;1.90;;;15.20;99.90;;;;;;4994808;28;20485;-72
2022/10/17 00:54:30;;;;;;;3.65;1.63;;;15.20;99.90;;;;;;4994404;28;20390;-71
2022/10/17 00:56:56;;;;;;;7.68;2.03;;;15.20;99.90;;;;;;4978380;28;20029;-72
2022/10/17 00:59:23;;;;;;;2.97;1.70;;;15.20;99.90;;;;;;4994190;28;20030;-72
2022/10/17 01:02:22;;;;;;;2.17;1.38;;;15.30;99.90;;;;;;5010436;28;20386;-72
2022/10/17 01:04:52;;;;;;;1.83;1.30;;;15.30;99.90;;;;;;4952864;28;20346;-72
2022/10/17 01:07:17;;;;;;;3.97;1.63;;;15.40;99.90;;;;;;4996662;28;20031;-72
2022/10/17 01:09:45;;;;;;;3.08;1.63;;;15.40;99.90;;;;;;5030901;28;20473;-72
2022/10/17 01:12:38;;;;;;;2.22;1.67;;;15.40;99.90;;;;;;5030689;28;20393;-72
2022/10/17 01:15:33;;;;;;;2.70;1.30;;;15.40;99.90;;;;;;5029142;28;20072;-72
2022/10/17 01:18:31;;;;;;;3.15;1.50;;;15.40;99.90;;;;;;5011291;28;20112;-72
2022/10/17 01:21:30;;;;;;;2.35;1.27;;;15.50;99.90;;;;;;5011367;28;20033;-72
2022/10/17 01:24:21;;;;;;;2.38;1.48;;;15.50;99.90;;;;;;5015845;28;20389;-72
2022/10/17 01:27:29;;;;;;;11.18;1.60;;;15.50;99.90;;;;;;5015600;28;20033;-71
2022/10/17 01:30:19;;;;;;;2.10;1.02;;;15.40;99.90;;;;;;5020362;28;20084;-72
2022/10/17 01:33:37;;;;;;;4.03;1.95;;;15.30;99.90;;;;;;5030508;28;20034;-72
2022/10/17 01:36:27;;;;;;;1.73;1.10;;;15.20;99.90;;;;;;4950425;29;20132;-72
2022/10/17 01:39:05;;;;;;;6.43;2.00;;;15.20;99.90;;;;;;5011844;28;20034;-72
2022/10/17 01:41:59;;;;;;;1.92;1.10;;;15.30;99.90;;;;;;5004637;28;20052;-72
2022/10/17 01:44:33;;;;;;;12.70;1.73;;;15.30;99.90;;;;;;5009622;28;20105;-71
2022/10/17 01:47:06;;;;;;;25.63;3.05;;;15.20;99.90;;;;;;5009885;28;20033;-72
2022/10/17 01:49:34;;;;;;;12.85;3.00;;;15.20;99.90;;;;;;5009790;28;20029;-72
2022/10/17 01:52:14;;;;;;;5.53;1.73;;;15.20;99.90;;;;;;5009570;28;20033;-72
2022/10/17 01:55:17;;;;;;;3.23;1.40;;;15.10;99.90;;;;;;5009635;28;20383;-72
2022/10/17 01:57:50;;;;;;;4.38;1.80;;;15.00;99.90;;;;;;4979083;28;20297;-72
2022/10/17 02:00:25;;;;;;;5.50;1.20;;;15.00;99.90;;;;;;5009607;28;20466;-72
2022/10/17 02:03:01;;;;;;;4.28;2.70;;;15.00;99.90;;;;;;5009330;28;20036;-71
2022/10/17 02:05:38;;;;;;;10.32;2.15;;;15.10;99.90;;;;;;5009850;28;20485;-71
2022/10/17 02:08:04;;;;;;;5.80;1.73;;;15.10;99.90;;;;;;5009490;28;20042;-72
2022/10/17 02:10:55;;;;;;;2.08;1.48;;;15.00;99.90;;;;;;5010729;28;20025;-72
2022/10/17 02:13:48;;;;;;;1.40;1.05;;;15.00;99.90;;;;;;5009143;28;20026;-72
2022/10/17 02:16:36;;;;;;;7.45;1.10;;;15.00;99.90;;;;;;5025614;28;20124;-71
2022/10/17 02:19:26;;;;;;;1.55;0.80;;;15.00;99.90;;;;;;5044619;23;20049;-75
2022/10/17 02:22:03;;;;;;;1.58;1.08;;;15.10;99.90;;;;;;5003505;28;20498;-75
2022/10/17 02:24:46;;;;;;;2.70;1.75;;;15.00;99.90;;;;;;4977208;28;20084;-75
2022/10/17 02:27:32;;;;;;;1.80;1.10;;;15.10;99.90;;;;;;4977452;28;20033;-75
2022/10/17 02:30:25;;;;;;;3.30;1.25;;;15.10;99.90;;;;;;4995091;28;20061;-74
2022/10/17 02:33:06;;;;;;;2.38;1.08;;;15.20;99.90;;;;;;4994236;28;20022;-74
2022/10/17 02:35:37;;;;;;;2.60;1.45;;;15.20;99.90;;;;;;4994854;28;20046;-74
2022/10/17 02:38:05;;;;;;;;;;;15.20;99.90;;;;;;4977968;28;20482;-74
2022/10/17 02:40:31;;;;;;;4.88;1.27;;;15.30;99.90;;;;;;4994768;28;19964;-74
2022/10/17 02:42:59;;;;;;;2.88;1.63;;;15.30;99.90;;;;;;4976836;28;20025;-74
2022/10/17 02:45:28;;;;;;;2.22;1.30;;;15.30;99.90;;;;;;4994345;28;20049;-74
2022/10/17 02:48:26;;;;;;;2.03;1.30;;;15.20;99.90;;;;;;4977255;28;20022;-74
2022/10/17 02:51:25;;;;;;;1.63;1.20;;;15.20;99.90;;;;;;4978231;28;20497;-74
2022/10/17 02:54:03;;;;;;;3.08;1.10;;;15.20;99.90;;;;;;4976814;28;20034;-74
2022/10/17 02:56:39;;;;;;;7.93;1.73;;;15.30;99.90;;;;;;4994252;28;20506;-75
2022/10/17 02:59:08;;;;;;;3.22;1.08;;;15.30;99.90;;;;;;4977106;28;20057;-75
2022/10/17 03:01:35;;;;;;;3.45;1.20;;;15.30;99.90;;;;;;4977523;28;20036;-75
2022/10/17 03:04:07;;;;;;;3.08;1.48;;;15.30;99.90;;;;;;4976430;28;20029;-75
2022/10/17 03:06:33;;;;;;;2.67;1.17;;;15.30;99.90;;;;;;4977189;28;20088;-74
2022/10/17 03:08:58;;;;;;;18.20;1.98;;;15.30;99.90;;;;;;4993870;28;20042;-74
2022/10/17 03:11:24;;;;;;;3.35;1.45;;;15.40;99.90;;;;;;4994150;28;20030;-74
2022/10/17 03:13:50;;;;;;;21.98;1.98;;;15.30;99.90;;;;;;4993633;28;20034;-75
2022/10/17 03:16:15;;;;;;;8.13;1.73;;;15.30;99.90;;;;;;5007957;28;20026;-74
2022/10/17 03:18:41;;;;;;;2.00;1.10;;;15.30;99.90;;;;;;5013172;28;20105;-74
2022/10/17 03:21:07;;;;;;;5.70;1.50;;;15.30;99.90;;;;;;5013407;28;20084;-74
2022/10/17 03:23:32;;;;;;;1.25;0.95;;;15.20;99.90;;;;;;5013218;28;20026;-74
2022/10/17 03:26:02;;;;;;;3.28;1.50;;;15.20;99.90;;;;;;5013336;28;20037;-74
2022/10/17 03:28:28;;;;;;;2.22;1.40;;;15.10;99.90;;;;;;4995383;28;20049;-74
2022/10/17 03:30:53;;;;;;;6.95;2.28;;;15.10;99.90;;;;;;5013082;28;20034;-74
2022/10/17 03:33:19;;;;;;;1.83;1.10;;;15.10;99.90;;;;;;4995295;28;20061;-74
2022/10/17 03:35:45;;;;;;;3.33;1.48;;;15.10;99.90;;;;;;5013198;28;20030;-74
2022/10/17 03:38:10;;;;;;;2.63;1.17;;;15.00;99.90;;;;;;5013368;28;20030;-74
2022/10/17 03:40:36;;;;;;;2.42;1.15;;;14.90;99.90;;;;;;5012988;28;20025;-74
2022/10/17 03:43:02;;;;;;;2.33;1.30;;;14.80;99.90;;;;;;5012776;28;20125;-74
2022/10/17 03:45:27;;;;;;;3.03;1.80;;;14.90;99.90;;;;;;5013184;28;20041;-74
2022/10/17 03:47:53;;;;;;;3.05;1.42;;;14.90;99.90;;;;;;4995365;28;20037;-74
2022/10/17 03:50:19;;;;;;;3.08;1.58;;;14.90;99.90;;;;;;4995325;28;20529;-75
2022/10/17 03:52:48;;;;;;;2.35;1.30;;;14.90;99.90;;;;;;5012427;28;20045;-75
2022/10/17 03:55:15;;;;;;;2.55;1.05;;;14.90;99.90;;;;;;4995056;28;20026;-75
2022/10/17 03:57:40;;;;;;;4.82;1.23;;;14.90;99.90;;;;;;4995109;28;20033;-75
2022/10/17 04:00:07;;;;;;;2.58;1.20;;;15.00;99.90;;;;;;4995152;28;20165;-74
2022/10/17 04:02:34;;;;;;;3.78;1.33;;;15.00;99.90;;;;;;5007473;28;20508;-75
2022/10/17 04:05:00;;;;;;;18.63;1.50;;;15.10;99.90;;;;;;5003170;28;20034;-75
2022/10/17 04:07:26;;;;;;;3.10;1.30;;;15.10;99.90;;;;;;4984097;28;20056;-74
2022/10/17 04:09:52;;;;;;;3.63;1.55;;;15.20;99.90;;;;;;4984624;28;20533;-75
2022/10/17 04:12:18;;;;;;;2.92;1.33;;;15.20;99.90;;;;;;4993802;28;20132;-74
2022/10/17 04:14:44;;;;;;;2.53;1.40;;;15.10;99.90;;;;;;5009249;28;20117;-75
2022/10/17 04:17:09;;;;;;;5.45;1.10;;;15.10;99.90;;;;;;4993633;28;20398;-72
2022/10/17 04:19:35;;;;;;;2.10;0.95;;;15.10;99.90;;;;;;5009711;28;20029;-74
2022/10/17 04:22:02;;;;;;;4.05;2.22;;;15.10;99.90;;;;;;5012522;28;20121;-74
2022/10/17 04:24:28;;;;;;;2.40;0.98;;;15.00;99.90;;;;;;4997013;28;20030;-71
2022/10/17 04:26:54;;;;;;;21.52;8.48;;;15.00;99.90;;;;;;4975090;28;20117;-72
2022/10/17 04:29:20;;;;;;;137.43;62.45;;;14.90;99.90;;;;;;4977538;28;20046;-72
2022/10/17 04:31:46;;;;;;;7.15;3.60;;;14.90;99.90;;;;;;4997411;28;20028;-72
2022/10/17 04:34:13;;;;;;;3.70;1.50;;;14.90;99.90;;;;;;4994480;28;20031;-72
2022/10/17 04:36:39;;;;;;;3.55;1.90;;;14.90;99.90;;;;;;4998602;28;20379;-71
2022/10/17 04:39:05;;;;;;;18.88;1.70;;;15.00;99.90;;;;;;4974252;28;20081;-72
2022/10/17 04:41:31;;;;;;;7.10;1.38;;;15.00;99.90;;;;;;5011571;28;20030;-71
2022/10/17 04:43:56;;;;;;;2.00;1.20;;;14.90;99.90;;;;;;5011534;28;20032;-72
2022/10/17 04:46:22;;;;;;;2.55;1.35;;;14.90;99.90;;;;;;4993727;28;20037;-71
2022/10/17 04:48:48;;;;;;;3.80;1.67;;;14.80;99.90;;;;;;4993775;28;20080;-72
2022/10/17 04:51:17;;;;;;;3.38;2.13;;;14.80;99.90;;;;;;5010566;28;20614;-72
2022/10/17 04:53:44;;;;;;;4.20;1.92;;;14.70;99.90;;;;;;4993475;28;20096;-72
2022/10/17 04:56:17;;;;;;;2.78;1.50;;;14.60;99.90;;;;;;4993506;28;20486;-70
2022/10/17 04:58:44;;;;;;;2.92;1.45;;;14.70;99.90;;;;;;4994259;28;20081;-70
2022/10/17 05:01:13;;;;;;;3.47;1.65;;;14.60;99.90;;;;;;5010860;28;20413;-71
2022/10/17 05:03:39;;;;;;;5.70;2.25;;;14.60;99.90;;;;;;4993481;28;20037;-72
2022/10/17 05:06:21;;;;;;;3.15;1.50;;;14.50;99.90;;;;;;5011048;28;20154;-72
2022/10/17 05:08:47;;;;;;;1.80;1.10;;;14.40;99.90;;;;;;4994236;28;20072;-71
2022/10/17 05:11:26;;;;;;;2.58;1.48;;;14.30;99.90;;;;;;4993214;28;20030;-71
2022/10/17 05:13:55;;;;;;;9.57;4.68;;;14.40;99.90;;;;;;4993042;28;20061;-71
2022/10/17 05:16:22;;;;;;;3.03;1.27;;;14.30;99.90;;;;;;4990070;28;20506;-71
2022/10/17 05:18:50;;;;;;;4.00;1.55;;;14.20;99.90;;;;;;4973828;28;20030;-71
2022/10/17 05:21:16;;;;;;;3.20;1.35;;;14.20;99.90;;;;;;4974062;28;20073;-71
2022/10/17 05:23:42;;;;;;;3.88;1.58;;;14.10;99.90;;;;;;4990762;28;20034;-70
2022/10/17 05:26:08;;;;;;;3.50;1.27;;;14.10;99.90;;;;;;5009496;28;20034;-71
2022/10/17 05:28:34;;;;;;;2.97;2.05;;;14.00;99.90;;;;;;4993051;28;20092;-71
2022/10/17 05:31:05;;;;;;;3.80;1.60;;;14.10;99.90;;;;;;4993207;28;20038;-70
2022/10/17 05:33:31;;;;;;;7.22;1.77;;;14.10;99.90;;;;;;5010672;28;20144;-70
2022/10/17 05:35:58;;;;;;;1.75;1.10;;;14.20;99.90;;;;;;5010309;28;20034;-71
2022/10/17 05:38:24;;;;;;;20.77;1.90;;;14.20;99.90;;;;;;4993225;28;20080;-72
2022/10/17 05:40:50;;;;;;;4.88;1.58;;;14.20;99.90;;;;;;5010083;28;20026;-73
2022/10/17 05:43:15;;;;;;;4.80;1.65;;;14.20;99.90;;;;;;5008225;28;20041;-73
2022/10/17 05:45:41;;;;;;;3.13;1.48;;;14.20;99.90;;;;;;4985445;28;20490;-73
2022/10/17 05:48:07;;;;;;;2.70;1.70;;;14.20;99.90;;;;;;4999379;28;20030;-72
2022/10/17 05:50:34;;;;;;;4.15;2.10;;;14.20;99.90;;;;;;4997254;28;20064;-72
2022/10/17 05:53:00;;;;;;;2.25;1.48;;;14.20;99.90;;;;;;5000863;28;20053;-75
2022/10/17 05:55:26;;;;;;;2.92;1.80;;;14.30;99.90;;;;;;4998640;28;20430;-77
2022/10/17 05:57:52;;;;;;;2.38;1.30;;;14.30;99.90;;;;;;4977327;28;20018;-76
2022/10/17 06:00:20;;;;;;;12.63;6.03;;;14.30;99.90;;;;;;4973919;28;20058;-76
2022/10/17 06:02:46;;;;;;;5.82;2.20;;;14.40;99.90;;;;;;4978082;28;20034;-76
2022/10/17 06:05:13;;;;;;;3.13;1.95;;;14.40;99.90;;;;;;5010463;28;20362;-75
2022/10/17 06:07:40;;;;;;;5.93;3.92;;;14.40;99.90;;;;;;4993011;28;20064;-76
2022/10/17 06:10:06;;;;;;;4.30;2.30;;;14.50;99.90;;;;;;5010374;28;20040;-76
2022/10/17 06:12:32;;;;;;;10.98;1.80;;;14.50;99.90;;;;;;5010324;28;20037;-77
2022/10/17 06:14:57;;;;;;;3.67;1.48;;;14.40;99.90;;;;;;5010199;28;20041;-75
2022/10/17 06:17:24;;;;;;;4.72;1.88;;;14.40;99.90;;;;;;5010433;28;20030;-75
2022/10/17 06:19:49;;;;;;;4.15;1.70;;;14.30;99.90;;;;;;4992571;28;20733;-76
2022/10/17 06:22:15;;;;;;;5.43;2.20;;;14.20;99.90;;;;;;4991659;28;20041;-75
2022/10/17 06:24:41;;;;;;;3.95;2.03;;;14.30;99.90;;;;;;5010216;28;20025;-75
2022/10/17 06:27:07;;;;;;;14.80;2.80;;;14.20;99.90;;;;;;4975489;28;20093;-76
2022/10/17 06:29:33;;;;;;;2.58;1.80;;;14.30;99.90;;;;;;4993221;28;20064;-72
2022/10/17 06:31:59;;;;;;;5.57;2.38;;;14.40;99.90;;;;;;4990691;28;20066;-73
2022/10/17 06:34:25;;;;;;;6.78;2.60;;;14.40;99.90;;;;;;4990343;28;20462;-73
2022/10/17 06:36:52;;;;;;;20.15;3.75;;;14.40;99.90;;;;;;4990474;28;20034;-74
2022/10/17 06:39:18;;;;;;;5.32;2.92;;;14.40;99.90;;;;;;4972853;28;20031;-72
2022/10/17 06:41:44;;;;;;;25.55;5.72;;;14.50;99.90;;;;;;4990693;28;20034;-73
2022/10/17 06:44:10;;;;;;;29.08;6.20;;;14.60;99.90;;;;;;4977393;28;20033;-72
2022/10/17 06:46:38;;;;;;;42.78;8.85;;;14.70;99.90;;;;;;4992730;28;20030;-74
2022/10/17 06:49:05;;;;;;;13.63;3.95;;;14.80;99.90;;;;;;4992702;28;20044;-74
2022/10/17 06:51:34;;;;;;;12.60;3.22;;;14.80;99.90;;;;;;5009979;28;20030;-74
2022/10/17 06:54:00;;;;;;;18.27;3.15;;;14.90;99.90;;;;;;5009565;28;20044;-73
2022/10/17 06:56:26;;;;;;;7.80;2.28;;;14.80;99.90;;;;;;5009820;28;20109;-73
2022/10/17 06:58:52;;;;;;;11.40;3.33;;;14.80;99.90;;;;;;5010072;28;20092;-75
2022/10/17 07:01:18;;;;;;;6.53;2.40;;;14.80;99.90;;;;;;5009703;28;20580;-73
2022/10/17 07:03:47;;;;;;;4.47;2.50;;;14.90;99.90;;;;;;5012701;28;20069;-74
2022/10/17 07:06:13;;;;;;;5.32;2.40;;;15.00;99.90;;;;;;5013617;28;20025;-73
2022/10/17 07:08:44;;;;;;;4.47;1.85;;;15.10;99.90;;;;;;4995505;28;20486;-73
2022/10/17 07:11:12;;;;;;;4.10;1.65;;;15.20;99.90;;;;;;4996273;28;20038;-74
2022/10/17 07:13:38;;;;;;;3.85;1.30;;;15.30;99.90;;;;;;4995051;28;20045;-73
2022/10/17 07:16:04;;;;;;;26.80;4.85;;;15.40;99.90;;;;;;4995673;28;20701;-73
2022/10/17 07:18:30;;;;;;;45.88;6.03;;;15.50;99.90;;;;;;5012941;28;20056;-75
2022/10/17 07:20:55;;;;;;;24.52;3.92;;;15.60;99.90;;;;;;5013090;28;20038;-74
2022/10/17 07:23:22;;;;;;;11.43;2.85;;;15.70;99.90;;;;;;5012945;28;20041;-74
2022/10/17 07:25:48;;;;;;;17.20;2.20;;;15.90;99.90;;;;;;5013124;28;20069;-72
2022/10/17 07:28:14;;;;;;;1.83;1.15;;;16.20;99.90;;;;;;5012954;28;20084;-73
2022/10/17 07:30:40;;;;;;;10.40;1.52;;;16.40;99.90;;;;;;4995102;28;20033;-73
2022/10/17 07:33:05;;;;;;;4.95;1.33;;;16.60;99.90;;;;;;4995057;28;20083;-73
2022/10/17 07:35:31;;;;;;;4.75;2.05;;;16.80;99.90;;;;;;4995239;28;20033;-73
2022/10/17 07:37:57;;;;;;;6.72;1.63;;;16.80;99.90;;;;;;5012859;28;20037;-73
2022/10/17 07:40:23;;;;;;;2.55;1.60;;;16.90;99.90;;;;;;5012955;28;20484;-74
2022/10/17 07:42:48;;;;;;;12.85;1.95;;;16.90;99.90;;;;;;4994565;28;20037;-55
2022/10/17 07:45:14;;;;;;;3.85;1.73;;;17.00;99.90;;;;;;5012734;28;20038;-49
2022/10/17 07:47:40;;;;;;;5.28;1.67;;;17.10;99.90;;;;;;4994866;28;20038;-51
2022/10/17 07:50:07;;;;;;;2.95;1.77;;;17.10;99.90;;;;;;5013033;28;20029;-50
2022/10/17 07:52:33;;;;;;;3.22;1.88;;;17.30;99.90;;;;;;5009219;28;20026;-55
2022/10/17 07:54:58;;;;;;;8.60;2.05;;;17.40;99.90;;;;;;4995176;28;20041;-54
2022/10/17 07:57:24;;;;;;;5.30;2.25;;;17.50;99.90;;;;;;4993297;28;20033;-50
2022/10/17 07:59:50;;;;;;;6.75;1.88;;;17.50;99.90;;;;;;5007154;28;20037;-55
2022/10/17 08:02:25;;;;;;;4.95;2.00;;;17.60;99.90;;;;;;5001848;28;20453;-51
2022/10/17 08:04:52;;;;;;;2.83;1.95;;;17.70;99.90;;;;;;4994148;28;20033;-52
2022/10/17 08:07:18;;;;;;;5.15;1.90;;;17.80;99.90;;;;;;5010612;28;20034;-54
2022/10/17 08:09:45;;;;;;;3.88;1.85;;;17.90;99.90;;;;;;5010426;28;20037;-51
2022/10/17 08:12:13;;;;;;;2.95;1.48;;;18.10;99.90;;;;;;4994077;28;20022;-53
2022/10/17 08:14:41;;;;;;;4.82;2.03;;;17.90;99.90;;;;;;4994285;28;20030;-55
2022/10/17 08:17:06;;;;;;;15.18;2.38;;;18.10;99.90;;;;;;5011668;28;20040;-52
2022/10/17 08:19:32;;;;;;;4.82;1.90;;;18.20;99.90;;;;;;5023828;23;20438;-52
2022/10/17 08:21:58;;;;;;;3.95;1.95;;;18.30;99.90;;;;;;5007913;28;20087;-52
2022/10/17 08:24:24;;;;;;;2.78;1.50;;;18.40;99.90;;;;;;5010157;28;20065;-49
2022/10/17 08:26:52;;;;;;;9.73;2.53;;;18.40;99.90;;;;;;5011350;28;20038;-53
2022/10/17 08:29:18;;;;;;;19.38;3.42;;;18.50;99.90;;;;;;5001930;28;20088;-57
2022/10/17 08:31:44;;;;;;;6.95;1.92;;;18.50;99.90;;;;;;4991976;28;20022;-51
2022/10/17 08:34:10;;;;;;;5.05;1.60;;;18.60;99.90;;;;;;4976594;28;20657;-54
2022/10/17 08:36:36;;;;;;;4.22;1.80;;;18.70;99.90;;;;;;4992557;28;20037;-53
2022/10/17 08:39:02;;;;;;;5.13;1.60;;;18.80;99.90;;;;;;5010535;28;20030;-54
2022/10/17 08:41:46;;;;;;;2.03;1.00;;;18.90;99.90;;;;;;4994206;28;20026;-50
2022/10/17 08:44:35;;;;;;;5.05;1.80;;;18.90;99.90;;;;;;4989825;28;20037;-53
2022/10/17 08:47:09;;;;;;;3.78;1.60;;;19.10;99.90;;;;;;4993493;28;20026;-54
2022/10/17 08:49:56;;;;;;;4.10;1.38;;;19.10;99.90;;;;;;4970640;28;20481;-54
2022/10/17 08:53:01;;;;;;;5.97;1.60;;;19.20;99.90;;;;;;4990905;28;20038;-56
2022/10/17 08:55:39;;;;;;;3.25;1.88;;;19.30;99.90;;;;;;4931277;28;20097;-55
2022/10/17 08:58:31;;;;;;;3.90;1.30;;;19.30;99.90;;;;;;4988548;28;20026;-54
2022/10/17 09:01:22;;;;;;;6.28;2.20;;;19.30;99.90;;;;;;5010815;28;20040;-55
2022/10/17 09:03:57;;;;;;;;;;;19.30;99.90;;;;;;5010956;28;20129;-55
2022/10/17 09:06:24;;;;;;;7.65;3.17;;;19.40;99.90;;;;;;5003946;28;19916;-57
2022/10/17 09:09:19;;;;;;;3.40;1.48;;;19.40;99.90;;;;;;4990225;28;20034;-52
2022/10/17 09:12:22;;;;;;;12.05;2.80;;;19.50;99.90;;;;;;4989760;28;20061;-50
2022/10/17 09:15:26;;;;;;;3.60;1.20;;;19.70;99.90;;;;;;4984954;28;20526;-53
2022/10/17 09:18:19;;;;;;;6.63;1.10;;;19.80;99.90;;;;;;5010355;28;20064;-72
2022/10/17 09:20:57;;;;;;;4.78;1.42;;;19.90;99.90;;;;;;5010417;28;20485;-74
2022/10/17 09:23:37;;;;;;;1.77;1.10;;;20.00;99.90;;;;;;4992614;28;20104;-74
2022/10/17 09:26:03;;;;;;;3.13;1.20;;;19.90;99.90;;;;;;4994099;28;20502;-71
2022/10/17 09:28:34;;;;;;;7.20;0.85;;;20.10;99.90;;;;;;4993097;28;20034;-72
2022/10/17 09:31:17;;;;;;;1.50;0.93;;;20.10;99.90;;;;;;5010352;28;20021;-72
2022/10/17 09:33:46;;;;;;;2.28;1.40;;;20.10;99.90;;;;;;4991320;28;20034;-72
2022/10/17 09:36:35;;;;;;;1.38;0.68;;;20.10;99.90;;;;;;5008069;28;20033;-73
2022/10/17 09:39:24;;;;;;;3.13;1.20;;;20.20;99.90;;;;;;4993183;28;20030;-73
2022/10/17 09:42:00;;;;;;;1.85;1.10;;;20.20;99.90;;;;;;4995831;28;20060;-72
2022/10/17 09:44:33;;;;;;;3.90;1.50;;;20.20;99.90;;;;;;4989419;28;20038;-74
2022/10/17 09:47:38;;;;;;;1.85;0.98;;;20.50;99.90;;;;;;4990595;28;20034;-73
2022/10/17 09:50:25;;;;;;;5.85;1.77;;;20.50;99.90;;;;;;4973239;28;20506;-73
2022/10/17 09:52:52;;;;;;;4.22;1.90;;;20.50;99.90;;;;;;5005067;28;20034;-73
2022/10/17 09:55:40;;;;;;;1.77;1.10;;;20.70;99.90;;;;;;4973173;28;20062;-74
2022/10/17 09:58:08;;;;;;;2.30;1.02;;;20.80;99.90;;;;;;4974894;28;20031;-74
2022/10/17 10:00:51;;;;;;;3.35;1.15;;;20.80;99.90;;;;;;4977358;28;20030;-74
2022/10/17 10:03:22;;;;;;;3.85;1.10;;;21.00;99.90;;;;;;5010220;28;20084;-77
2022/10/17 10:06:18;;;;;;;4.85;1.20;;;21.20;99.90;;;;;;4992666;28;20096;-74
2022/10/17 10:09:02;;;;;;;4.43;1.25;;;21.30;99.90;;;;;;4978008;28;20038;-74
2022/10/17 10:11:54;;;;;;;4.53;1.33;;;21.50;99.90;;;;;;5009456;28;20033;-73
2022/10/17 10:14:32;;;;;;;3.05;1.50;;;21.70;99.90;;;;;;4970548;28;20026;-77
2022/10/17 10:17:00;;;;;;;1.95;1.27;;;21.80;99.90;;;;;;4974216;28;20039;-77
2022/10/17 10:19:36;;;;;;;6.18;1.38;;;22.00;99.90;;;;;;4984149;28;20030;-77
2022/10/17 10:22:05;;;;;;;1.73;1.00;;;21.90;99.90;;;;;;5006677;28;20634;-74
2022/10/17 10:24:31;;;;;;;1.92;1.10;;;21.90;99.90;;;;;;5008217;28;20124;-76
2022/10/17 10:27:17;;;;;;;2.95;1.75;;;22.30;99.90;;;;;;5008789;28;20034;-74
2022/10/17 10:29:50;;;;;;;2.72;1.42;;;22.50;99.90;;;;;;4992549;28;20037;-75
2022/10/17 10:32:35;;;;;;;9.82;1.33;;;22.30;99.90;;;;;;4992295;28;20030;-74
2022/10/17 10:35:24;;;;;;;5.55;1.77;;;22.50;99.90;;;;;;4992494;28;20036;-74
2022/10/17 10:37:56;;;;;;;2.03;1.10;;;22.40;99.90;;;;;;5010122;28;20022;-73
2022/10/17 10:40:38;;;;;;;3.88;1.45;;;22.60;99.90;;;;;;4992405;28;20026;-74
2022/10/17 10:43:05;;;;;;;3.55;1.42;;;22.90;99.90;;;;;;4993533;28;20053;-75
2022/10/17 10:45:37;;;;;;;1.85;1.05;;;22.90;99.90;;;;;;4976694;28;20034;-74
2022/10/17 10:48:21;;;;;;;3.10;0.98;;;23.20;99.90;;;;;;4993518;28;20030;-75
2022/10/17 10:51:13;;;;;;;1.80;1.20;;;23.20;99.90;;;;;;4977691;28;20045;-75
2022/10/17 10:53:55;;;;;;;4.38;2.67;;;23.90;99.90;;;;;;4993763;28;20034;-74
2022/10/17 10:56:33;;;;;;;1.92;1.30;;;24.80;99.90;;;;;;4977953;28;20030;-83
2022/10/17 10:58:59;;;;;;;5.25;0.95;;;25.00;99.90;;;;;;4994419;28;20042;-77
2022/10/17 11:01:58;;;;;;;2.28;1.17;;;25.80;99.90;;;;;;4994209;28;20502;-80
2022/10/17 11:04:45;;;;;;;3.90;1.33;;;25.90;99.90;;;;;;4994127;28;20030;-81
2022/10/17 11:07:23;;;;;;;2.10;1.33;;;25.20;99.90;;;;;;4978727;28;20030;-84
2022/10/17 11:10:17;;;;;;;8.88;1.13;;;25.00;99.90;;;;;;4994290;28;20394;-83
2022/10/17 11:13:07;;;;;;;2.85;1.10;;;26.60;99.50;;;;;;4993924;28;20046;-78
2022/10/17 11:15:52;;;;;;;1.42;0.93;;;25.90;99.90;;;;;;4985989;28;20026;-67
2022/10/17 11:18:53;;;;;;;2.03;1.00;;;26.20;99.90;;;;;;5012520;28;20215;-69
2022/10/17 11:21:40;;;;;;;8.02;1.33;;;26.60;99.60;;;;;;4983245;28;20035;-67
2022/10/17 11:24:42;;;;;;;2.83;1.25;;;26.80;99.20;;;;;;4976244;28;20471;-67
2022/10/17 11:27:08;;;;;;;4.93;1.00;;;25.30;99.90;;;;;;4993497;28;20125;-67
2022/10/17 11:29:39;;;;;;;2.05;0.85;;;24.70;99.90;;;;;;4993627;28;20041;-68
2022/10/17 11:32:18;;;;;;;2.15;1.15;;;25.40;99.90;;;;;;4992169;28;20101;-68
2022/10/17 11:35:09;;;;;;;2.60;1.30;;;26.00;99.90;;;;;;4993986;28;20052;-69
2022/10/17 11:37:40;;;;;;;2.65;1.02;;;25.90;99.90;;;;;;4996069;28;20535;-69
2022/10/17 11:40:23;;;;;;;2.80;1.05;;;26.80;99.90;;;;;;4979543;28;20030;-67
2022/10/17 11:43:01;;;;;;;2.05;0.95;;;27.70;97.30;;;;;;4976623;28;20034;-67
2022/10/17 11:45:35;;;;;;;2.95;1.20;;;26.50;99.20;;;;;;4983659;28;20109;-67
2022/10/17 11:48:11;;;;;;;1.42;0.80;;;28.30;97.20;;;;;;4999333;28;20578;-69
2022/10/17 11:50:42;;;;;;;5.68;1.00;;;28.50;96.10;;;;;;4944621;28;20124;-69
2022/10/17 11:53:14;;;;;;;1.02;0.60;;;28.30;96.60;;;;;;4993026;28;20039;-70
2022/10/17 11:55:42;;;;;;;2.25;1.40;;;28.50;96.60;;;;;;4975384;28;20125;-68
2022/10/17 11:58:46;;;;;;;2.70;1.38;;;28.40;95.70;;;;;;4975745;28;20709;-69
2022/10/17 12:01:40;;;;;;;1.63;1.33;;;28.80;95.70;;;;;;4990671;28;20045;-69
2022/10/17 12:04:53;;;;;;;2.67;1.15;;;28.10;96.00;;;;;;4988458;28;20657;-67
2022/10/17 12:07:58;;;;;;;18.33;1.13;;;28.90;95.00;;;;;;4980443;28;20046;-68
2022/10/17 12:10:59;;;;;;;8.40;1.73;;;29.60;94.50;;;;;;4978501;28;20034;-68
2022/10/17 12:13:28;;;;;;;2.60;1.40;;;29.00;94.80;;;;;;4975495;28;20105;-67
2022/10/17 12:15:56;;;;;;;3.97;1.58;;;28.10;95.60;;;;;;4992789;28;20042;-60
2022/10/17 12:18:28;;;;;;;4.70;1.60;;;28.80;95.20;;;;;;4994995;28;20109;-58
2022/10/17 12:20:59;;;;;;;4.18;1.95;;;29.70;93.80;;;;;;4992466;28;20121;-60
2022/10/17 12:23:30;;;;;;;1.48;0.80;;;27.90;95.80;;;;;;4974445;28;20056;-59
2022/10/17 12:26:00;;;;;;;2.78;1.25;;;27.40;96.50;;;;;;5009311;28;20025;-59
2022/10/17 12:28:31;;;;;;;2.50;0.90;;;27.50;96.20;;;;;;5010314;28;20030;-60
2022/10/17 12:31:08;;;;;;;7.57;2.10;;;27.80;96.70;;;;;;5009690;28;20061;-60
2022/10/17 12:33:47;;;;;;;11.48;3.97;;;28.30;96.70;;;;;;4973627;28;20030;-60
2022/10/17 12:36:16;;;;;;;3.33;1.42;;;27.60;98.00;;;;;;4975533;28;20887;-60
2022/10/17 12:39:02;;;;;;;0.88;0.55;;;29.50;94.20;;;;;;5001741;28;20034;-61
2022/10/17 12:41:37;;;;;;;2.75;1.02;;;29.60;93.10;;;;;;4990611;28;20030;-61
2022/10/17 12:44:12;;;;;;;1.70;1.00;;;29.60;93.30;;;;;;5006738;28;20035;-61
2022/10/17 12:46:50;;;;;;;6.07;0.82;;;28.30;95.10;;;;;;4991536;28;20049;-61
2022/10/17 12:49:39;;;;;;;6.07;1.40;;;28.10;97.10;;;;;;4990880;28;20045;-59
2022/10/17 12:52:33;;;;;;;2.83;1.08;;;27.70;96.60;;;;;;4991530;28;20398;-61
2022/10/17 12:55:02;;;;;;;2.85;1.25;;;28.40;95.30;;;;;;4990934;28;20030;-60
2022/10/17 12:58:03;;;;;;;7.40;1.73;;;29.40;93.30;;;;;;4991343;28;20073;-61
2022/10/17 13:00:54;;;;;;;5.07;1.10;;;28.70;93.10;;;;;;4973751;28;20030;-61
2022/10/17 13:03:31;;;;;;;5.32;1.65;;;27.60;95.50;;;;;;4975116;28;20112;-61
2022/10/17 13:06:03;;;;;;;1.80;0.65;;;28.50;94.40;;;;;;4995726;28;20105;-59
2022/10/17 13:08:38;;;;;;;2.45;1.10;;;28.20;94.60;;;;;;4978162;28;20025;-61
2022/10/17 13:11:06;;;;;;;4.45;1.33;;;27.70;95.50;;;;;;4993216;28;20497;-60
2022/10/17 13:13:48;;;;;;;2.67;1.20;;;28.10;95.60;;;;;;4982175;28;20030;-61
2022/10/17 13:16:57;;;;;;;3.88;1.10;;;29.50;93.60;;;;;;4973839;28;20541;-60
2022/10/17 13:19:30;;;;;;;4.30;1.65;;;28.50;94.70;;;;;;4963692;28;20060;-61
2022/10/17 13:21:59;;;;;;;2.75;1.00;;;29.10;93.70;;;;;;4985247;28;20031;-60